Time;durP1;ratioP1;P1;durP2;ratioP2;P2;SDS_P1;SDS_P2;PMS_P1;PMS_P2;Temp;Humidity;BMP_temperature;BMP_pressure;BME280_temperature;BME280_humidity;BME280_pressure;Samples;Min_cycle;Max_cycle;Signal;HPM_P1;HPM_P2
2023/11/16 00:02:23;;;;;;;8.20;1.83;;;5.20;99.90;;;;;;5019302;28;20040;-83
2023/11/16 00:04:49;;;;;;;5.60;1.73;;;5.20;99.90;;;;;;5023787;28;20092;-83
2023/11/16 00:07:16;;;;;;;6.00;1.60;;;5.20;99.90;;;;;;5019870;28;20113;-84
2023/11/16 00:09:41;;;;;;;6.47;1.50;;;5.20;99.90;;;;;;5021256;28;20108;-83
2023/11/16 00:12:07;;;;;;;5.50;1.70;;;5.20;99.90;;;;;;5023272;28;20042;-84
2023/11/16 00:14:34;;;;;;;2.70;1.40;;;5.20;99.90;;;;;;5022110;28;20040;-84
2023/11/16 00:17:00;;;;;;;10.97;3.07;;;5.30;99.90;;;;;;5022904;28;20026;-83
2023/11/16 00:19:26;;;;;;;9.20;2.07;;;5.30;99.90;;;;;;5023867;28;20045;-84
2023/11/16 00:21:52;;;;;;;6.57;1.50;;;5.30;99.90;;;;;;5021944;28;20642;-84
2023/11/16 00:24:19;;;;;;;5.77;1.83;;;5.30;99.90;;;;;;5023379;28;20137;-84
2023/11/16 00:26:45;;;;;;;3.87;1.83;;;5.40;99.90;;;;;;5024450;28;20140;-84
2023/11/16 00:29:11;;;;;;;7.37;1.70;;;5.40;99.90;;;;;;5029743;28;20041;-84
2023/11/16 00:31:37;;;;;;;6.27;1.80;;;5.40;99.90;;;;;;5023662;28;20104;-84
2023/11/16 00:34:03;;;;;;;7.90;1.90;;;5.40;99.90;;;;;;5023850;28;20563;-85
2023/11/16 00:36:28;;;;;;;6.07;1.70;;;5.50;99.90;;;;;;5024235;28;20036;-84
2023/11/16 00:38:58;;;;;;;7.90;1.90;;;5.40;99.90;;;;;;5021436;28;20052;-83
2023/11/16 00:41:27;;;;;;;3.83;1.63;;;5.50;99.90;;;;;;5021114;28;20037;-84
2023/11/16 00:43:53;;;;;;;6.70;2.43;;;5.50;99.90;;;;;;5020193;28;20033;-83
2023/11/16 00:46:19;;;;;;;4.97;1.60;;;5.50;99.90;;;;;;5020170;28;20693;-84
2023/11/16 00:48:45;;;;;;;5.47;1.77;;;5.40;99.90;;;;;;5021198;28;20025;-84
2023/11/16 00:51:12;;;;;;;6.10;1.63;;;5.50;99.90;;;;;;5020581;28;20042;-85
2023/11/16 00:53:42;;;;;;;4.80;1.53;;;5.40;99.90;;;;;;5018399;28;20087;-83
2023/11/16 00:56:13;;;;;;;6.47;1.60;;;5.50;99.90;;;;;;5019051;28;20025;-85
2023/11/16 00:58:39;;;;;;;6.50;1.70;;;5.50;99.90;;;;;;5020539;28;20026;-83
2023/11/16 01:01:05;;;;;;;6.77;1.70;;;5.50;99.90;;;;;;5019581;28;20133;-83
2023/11/16 01:03:32;;;;;;;5.03;1.70;;;5.50;99.90;;;;;;5020594;28;20091;-84
2023/11/16 01:05:57;;;;;;;10.43;2.50;;;5.50;99.90;;;;;;5020341;28;20795;-84
2023/11/16 01:08:23;;;;;;;5.43;1.90;;;5.50;99.90;;;;;;5019345;28;20021;-84
2023/11/16 01:10:49;;;;;;;4.30;2.00;;;5.50;99.90;;;;;;5018266;28;20029;-84
2023/11/16 01:13:28;;;;;;;5.13;1.70;;;5.50;99.90;;;;;;5018518;28;20017;-83
2023/11/16 01:15:57;;;;;;;6.80;2.43;;;5.50;99.90;;;;;;5021687;28;20133;-84
2023/11/16 01:18:26;;;;;;;7.67;1.60;;;5.60;99.90;;;;;;5016323;28;20013;-84
2023/11/16 01:20:57;;;;;;;5.10;1.70;;;5.60;99.90;;;;;;5018543;28;20425;-84
2023/11/16 01:23:24;;;;;;;5.73;1.70;;;5.70;99.90;;;;;;5018138;28;20037;-84
2023/11/16 01:25:53;;;;;;;7.00;1.60;;;5.70;99.90;;;;;;5017703;28;20410;-84
2023/11/16 01:28:26;;;;;;;5.50;1.80;;;5.70;99.90;;;;;;5016190;28;20036;-84
2023/11/16 01:30:51;;;;;;;4.50;1.97;;;5.80;99.90;;;;;;5018804;28;20056;-84
2023/11/16 01:33:17;;;;;;;6.03;1.53;;;5.80;99.90;;;;;;5019241;28;20025;-84
2023/11/16 01:35:44;;;;;;;7.43;1.80;;;5.80;99.90;;;;;;5016809;28;20030;-84
2023/11/16 01:38:12;;;;;;;5.43;1.60;;;5.90;99.90;;;;;;5019948;28;20029;-85
2023/11/16 01:40:40;;;;;;;6.07;1.77;;;5.90;99.90;;;;;;5021611;28;20412;-85
2023/11/16 01:43:06;;;;;;;5.17;2.17;;;5.90;99.90;;;;;;5021502;28;20667;-83
2023/11/16 01:45:33;;;;;;;5.70;1.70;;;5.90;99.90;;;;;;5020111;28;20148;-84
2023/11/16 01:48:03;;;;;;;7.20;1.70;;;5.90;99.90;;;;;;5019744;28;20396;-84
2023/11/16 01:50:30;;;;;;;5.73;1.97;;;6.00;99.90;;;;;;5019490;28;20048;-83
2023/11/16 01:53:04;;;;;;;9.33;2.00;;;6.00;99.90;;;;;;5021352;28;20096;-83
2023/11/16 01:55:35;;;;;;;7.43;1.60;;;6.00;99.90;;;;;;5020581;28;20116;-83
2023/11/16 01:58:03;;;;;;;8.80;1.83;;;6.00;99.90;;;;;;5019802;28;20029;-84
2023/11/16 02:00:29;;;;;;;8.03;1.73;;;6.00;99.90;;;;;;5019447;28;20428;-83
2023/11/16 02:02:58;;;;;;;4.43;1.50;;;6.00;99.90;;;;;;5022574;28;20160;-83
2023/11/16 02:05:23;;;;;;;6.67;1.83;;;6.00;99.90;;;;;;5019513;28;20444;-83
2023/11/16 02:07:49;;;;;;;3.00;1.30;;;5.90;99.90;;;;;;5022253;28;20234;-83
2023/11/16 02:10:14;;;;;;;4.93;1.30;;;5.90;99.90;;;;;;5029819;28;20022;-84
2023/11/16 02:12:53;;;;;;;3.70;1.50;;;5.90;99.90;;;;;;5037906;28;20120;-84
2023/11/16 02:15:19;;;;;;;3.90;1.40;;;5.90;99.90;;;;;;5030388;28;20172;-84
2023/11/16 02:17:45;;;;;;;4.57;1.40;;;5.90;99.90;;;;;;5020297;28;20101;-83
2023/11/16 02:20:11;;;;;;;4.07;1.87;;;5.90;99.90;;;;;;5020856;28;20532;-85
2023/11/16 02:22:38;;;;;;;8.37;1.43;;;5.90;99.90;;;;;;5022851;28;20052;-84
2023/11/16 02:25:05;;;;;;;4.13;1.83;;;5.90;99.90;;;;;;5020913;28;20033;-84
2023/11/16 02:27:31;;;;;;;5.10;1.60;;;5.90;99.90;;;;;;5020584;28;21107;-84
2023/11/16 02:29:57;;;;;;;4.23;1.50;;;5.90;99.90;;;;;;5019002;28;20117;-84
2023/11/16 02:32:25;;;;;;;7.77;1.93;;;5.90;99.90;;;;;;5023272;28;20036;-84
2023/11/16 02:34:51;;;;;;;8.00;2.57;;;6.00;99.90;;;;;;5026796;28;20042;-83
2023/11/16 02:37:17;;;;;;;3.73;1.20;;;6.00;99.90;;;;;;5022622;28;20562;-84
2023/11/16 02:39:43;;;;;;;5.73;1.60;;;6.00;99.90;;;;;;5023859;28;20784;-86
2023/11/16 02:42:12;;;;;;;4.63;1.40;;;6.00;99.90;;;;;;5023900;28;20026;-84
2023/11/16 02:44:39;;;;;;;3.57;1.30;;;6.10;99.90;;;;;;5020861;28;20039;-83
2023/11/16 02:47:06;;;;;;;7.17;1.70;;;6.10;99.90;;;;;;5026421;28;20079;-84
2023/11/16 02:49:33;;;;;;;6.17;1.30;;;6.20;99.90;;;;;;5020919;28;20034;-84
2023/11/16 02:51:59;;;;;;;5.70;1.67;;;6.20;99.90;;;;;;5024186;28;20053;-84
2023/11/16 02:54:25;;;;;;;5.90;1.77;;;6.20;99.90;;;;;;5021956;28;20045;-86
2023/11/16 02:56:51;;;;;;;7.53;1.53;;;6.30;99.90;;;;;;5022120;28;20443;-84
2023/11/16 02:59:16;;;;;;;2.97;1.20;;;6.30;99.90;;;;;;5023411;28;20034;-85
2023/11/16 03:01:42;;;;;;;7.17;1.60;;;6.30;99.90;;;;;;5022164;28;20025;-84
2023/11/16 03:04:07;;;;;;;3.67;1.10;;;6.30;99.90;;;;;;5020725;28;20080;-83
2023/11/16 03:06:33;;;;;;;5.97;1.33;;;6.30;99.90;;;;;;5020089;28;20025;-84
2023/11/16 03:08:58;;;;;;;6.80;1.40;;;6.30;99.90;;;;;;5021489;28;20013;-85
2023/11/16 03:11:24;;;;;;;7.27;1.90;;;6.30;99.90;;;;;;5022386;28;20033;-85
2023/11/16 03:13:49;;;;;;;6.27;1.60;;;6.30;99.90;;;;;;5023460;28;20032;-84
2023/11/16 03:16:17;;;;;;;3.67;1.80;;;6.30;99.90;;;;;;5021725;28;20025;-85
2023/11/16 03:18:43;;;;;;;8.27;2.00;;;6.30;99.90;;;;;;5024993;28;20400;-84
2023/11/16 03:21:09;;;;;;;6.53;1.43;;;6.30;99.90;;;;;;5024960;28;20033;-84
2023/11/16 03:23:36;;;;;;;6.03;2.27;;;6.30;99.90;;;;;;5023492;28;20037;-84
2023/11/16 03:26:03;;;;;;;4.97;1.20;;;6.20;99.90;;;;;;5022877;28;20044;-84
2023/11/16 03:28:29;;;;;;;5.73;1.47;;;6.30;99.90;;;;;;5021553;28;20103;-83
2023/11/16 03:30:54;;;;;;;7.37;1.60;;;6.20;99.90;;;;;;5023668;28;20480;-87
2023/11/16 03:33:20;;;;;;;5.83;1.23;;;6.20;99.90;;;;;;5022020;28;20862;-84
2023/11/16 03:35:48;;;;;;;4.83;1.50;;;6.20;99.90;;;;;;5022524;28;20048;-84
2023/11/16 03:38:16;;;;;;;5.03;1.20;;;6.20;99.90;;;;;;5022900;28;20014;-85
2023/11/16 03:40:42;;;;;;;4.93;2.27;;;6.20;99.90;;;;;;5025585;28;20045;-84
2023/11/16 03:43:09;;;;;;;4.80;1.40;;;6.20;99.90;;;;;;5023260;28;20034;-83
2023/11/16 03:45:35;;;;;;;3.57;1.40;;;6.20;99.90;;;;;;5024901;28;20087;-84
2023/11/16 03:48:01;;;;;;;5.83;1.30;;;6.10;99.90;;;;;;5024638;28;20041;-84
2023/11/16 03:50:26;;;;;;;5.30;1.60;;;6.10;99.90;;;;;;5026401;28;20037;-83
2023/11/16 03:52:52;;;;;;;4.33;1.40;;;6.10;99.90;;;;;;5030642;28;20271;-83
2023/11/16 03:55:17;;;;;;;2.53;1.10;;;6.00;99.90;;;;;;5021262;28;20584;-83
2023/11/16 03:57:43;;;;;;;7.40;1.60;;;5.90;99.90;;;;;;5024035;28;20060;-85
2023/11/16 04:00:09;;;;;;;6.77;1.53;;;5.90;99.90;;;;;;5023849;28;20063;-84
2023/11/16 04:02:35;;;;;;;7.20;1.43;;;5.90;99.90;;;;;;5021445;28;20113;-84
2023/11/16 04:05:01;;;;;;;7.83;1.47;;;5.80;99.90;;;;;;5022068;28;20032;-84
2023/11/16 04:07:27;;;;;;;10.50;2.10;;;5.80;99.90;;;;;;5023262;28;20025;-84
2023/11/16 04:09:52;;;;;;;6.43;1.40;;;5.80;99.90;;;;;;5022860;28;20052;-84
2023/11/16 04:12:18;;;;;;;3.17;1.50;;;5.70;99.90;;;;;;5025560;28;20076;-84
2023/11/16 04:14:43;;;;;;;8.33;1.67;;;5.80;99.90;;;;;;5024199;28;20659;-84
2023/11/16 04:17:13;;;;;;;6.23;1.30;;;5.80;99.90;;;;;;5024036;28;20085;-84
2023/11/16 04:19:39;;;;;;;7.87;1.53;;;5.80;99.90;;;;;;5021900;28;20040;-84
2023/11/16 04:22:07;;;;;;;6.27;1.50;;;5.80;99.90;;;;;;5022436;28;20029;-83
2023/11/16 04:24:44;;;;;;;8.03;1.90;;;5.80;99.90;;;;;;5021151;28;20086;-83
2023/11/16 04:27:09;;;;;;;4.77;1.43;;;5.80;99.90;;;;;;5022301;28;21491;-83
2023/11/16 04:29:35;;;;;;;5.47;1.80;;;5.80;99.90;;;;;;5022746;28;20030;-86
2023/11/16 04:32:01;;;;;;;5.60;1.40;;;5.80;99.90;;;;;;5023492;28;20029;-84
2023/11/16 04:34:27;;;;;;;7.53;2.60;;;5.90;99.90;;;;;;5024876;28;20040;-83
2023/11/16 04:36:53;;;;;;;4.10;1.27;;;5.90;99.90;;;;;;5022431;28;20049;-83
2023/11/16 04:39:19;;;;;;;9.17;1.80;;;5.80;99.90;;;;;;5022494;28;20052;-83
2023/11/16 04:41:49;;;;;;;6.63;1.40;;;5.80;99.90;;;;;;5022251;28;20043;-84
2023/11/16 04:44:15;;;;;;;6.20;1.93;;;5.80;99.90;;;;;;5024070;28;20034;-83
2023/11/16 04:46:47;;;;;;;4.53;1.47;;;5.70;99.90;;;;;;5020990;28;20025;-83
2023/11/16 04:49:13;;;;;;;3.40;1.60;;;5.70;99.90;;;;;;5023988;28;20378;-83
2023/11/16 04:51:40;;;;;;;4.73;1.40;;;5.70;99.90;;;;;;5023643;28;20026;-83
2023/11/16 04:54:07;;;;;;;8.93;1.43;;;5.60;99.90;;;;;;5021924;28;20083;-84
2023/11/16 04:56:32;;;;;;;3.67;1.67;;;5.60;99.90;;;;;;5022522;28;20501;-84
2023/11/16 04:58:58;;;;;;;10.63;2.20;;;5.60;99.90;;;;;;5022966;28;20021;-84
2023/11/16 05:01:23;;;;;;;7.17;2.30;;;5.60;99.90;;;;;;5020009;28;20034;-84
2023/11/16 05:03:50;;;;;;;7.00;1.80;;;5.50;99.90;;;;;;5023495;28;20040;-84
2023/11/16 05:06:16;;;;;;;11.37;2.23;;;5.50;99.90;;;;;;5034158;28;20029;-85
2023/11/16 05:08:42;;;;;;;6.57;1.77;;;5.50;99.90;;;;;;5039888;28;20530;-83
2023/11/16 05:11:08;;;;;;;9.87;1.97;;;5.50;99.90;;;;;;5031723;28;20154;-83
2023/11/16 05:13:34;;;;;;;7.63;2.20;;;5.50;99.90;;;;;;5020087;28;20118;-83
2023/11/16 05:16:00;;;;;;;5.67;1.67;;;5.40;99.90;;;;;;5021331;28;20025;-84
2023/11/16 05:18:26;;;;;;;6.50;1.80;;;5.40;99.90;;;;;;5019188;28;20092;-84
2023/11/16 05:20:54;;;;;;;6.30;1.93;;;5.40;99.90;;;;;;5019895;28;20747;-84
2023/11/16 05:23:20;;;;;;;5.63;1.90;;;5.40;99.90;;;;;;5017734;28;20029;-84
2023/11/16 05:25:46;;;;;;;6.33;1.93;;;5.30;99.90;;;;;;5015685;28;20039;-83
2023/11/16 05:28:11;;;;;;;6.93;1.83;;;5.30;99.90;;;;;;5018068;28;20026;-83
2023/11/16 05:30:37;;;;;;;5.57;1.70;;;5.30;99.90;;;;;;5016802;28;20064;-84
2023/11/16 05:33:03;;;;;;;8.40;1.70;;;5.30;99.90;;;;;;5017632;28;20527;-86
2023/11/16 05:35:32;;;;;;;9.47;2.30;;;5.30;99.90;;;;;;5020746;28;20040;-84
2023/11/16 05:37:58;;;;;;;7.73;1.73;;;5.30;99.90;;;;;;5019925;28;20029;-86
2023/11/16 05:40:26;;;;;;;7.03;1.80;;;5.30;99.90;;;;;;5020143;28;20037;-84
2023/11/16 05:42:52;;;;;;;6.97;2.40;;;5.30;99.90;;;;;;5019538;28;20030;-85
2023/11/16 05:45:18;;;;;;;7.77;2.20;;;5.30;99.90;;;;;;5020207;28;20037;-86
2023/11/16 05:47:45;;;;;;;8.27;1.60;;;5.30;99.90;;;;;;5020162;28;20091;-88
2023/11/16 05:50:11;;;;;;;3.63;1.50;;;5.30;99.90;;;;;;5012391;28;20040;-83
2023/11/16 05:52:38;;;;;;;6.10;1.90;;;5.30;99.90;;;;;;5010333;28;20034;-84
2023/11/16 05:55:05;;;;;;;6.80;1.70;;;5.30;99.90;;;;;;5014244;28;20032;-84
2023/11/16 05:57:30;;;;;;;5.63;2.27;;;5.30;99.90;;;;;;5015243;28;20037;-83
2023/11/16 05:59:56;;;;;;;8.03;2.40;;;5.30;99.90;;;;;;5012788;28;20034;-84
2023/11/16 06:02:22;;;;;;;4.43;1.50;;;5.30;99.90;;;;;;5011300;28;20029;-83
2023/11/16 06:04:50;;;;;;;4.80;1.73;;;5.30;99.90;;;;;;5013320;28;20022;-83
2023/11/16 06:07:15;;;;;;;6.50;1.97;;;5.20;99.90;;;;;;5013812;28;20072;-84
2023/11/16 06:09:41;;;;;;;7.57;2.00;;;5.20;99.90;;;;;;5011478;28;20064;-84
2023/11/16 06:12:07;;;;;;;6.70;1.90;;;5.20;99.90;;;;;;5010495;28;20048;-84
2023/11/16 06:14:34;;;;;;;9.40;2.00;;;5.20;99.90;;;;;;5010560;28;20037;-83
2023/11/16 06:17:00;;;;;;;6.63;1.90;;;5.20;99.90;;;;;;5012729;28;20025;-83
2023/11/16 06:19:29;;;;;;;9.93;2.47;;;5.10;99.90;;;;;;5012185;28;20071;-83
2023/11/16 06:21:54;;;;;;;6.13;2.07;;;5.20;99.90;;;;;;5013026;28;20033;-84
2023/11/16 06:24:20;;;;;;;5.90;1.70;;;5.10;99.90;;;;;;4993686;28;20190;-83
2023/11/16 06:26:46;;;;;;;9.00;2.10;;;5.10;99.90;;;;;;5014287;28;20064;-83
2023/11/16 06:29:14;;;;;;;6.80;2.30;;;5.10;99.90;;;;;;5011197;28;21743;-83
2023/11/16 06:31:40;;;;;;;6.83;2.20;;;5.10;99.90;;;;;;5013734;28;20146;-83
2023/11/16 06:34:06;;;;;;;6.00;2.23;;;5.10;99.90;;;;;;5013103;28;20121;-83
2023/11/16 06:36:31;;;;;;;5.07;1.77;;;5.10;99.90;;;;;;5010128;28;20056;-82
2023/11/16 06:38:57;;;;;;;10.53;2.90;;;5.10;99.90;;;;;;5010074;28;20129;-83
2023/11/16 06:41:22;;;;;;;8.50;2.70;;;5.10;99.90;;;;;;5012059;28;20465;-83
2023/11/16 06:43:48;;;;;;;9.67;2.73;;;5.10;99.90;;;;;;5013036;28;20523;-83
2023/11/16 06:46:15;;;;;;;6.70;2.37;;;5.10;99.90;;;;;;5012221;28;20022;-82
2023/11/16 06:48:41;;;;;;;10.37;2.33;;;5.20;99.90;;;;;;5011646;28;20028;-83
2023/11/16 06:51:08;;;;;;;6.50;2.00;;;5.20;99.90;;;;;;4995215;28;20033;-83
2023/11/16 06:53:35;;;;;;;7.70;1.77;;;5.20;99.90;;;;;;4991242;28;20174;-83
2023/11/16 06:56:01;;;;;;;6.50;2.00;;;5.20;99.90;;;;;;4993976;28;20026;-84
2023/11/16 06:58:27;;;;;;;6.27;1.73;;;5.20;99.90;;;;;;4992445;28;20054;-84
2023/11/16 07:00:54;;;;;;;10.10;1.70;;;5.20;99.90;;;;;;4993447;28;20133;-83
2023/11/16 07:03:21;;;;;;;5.63;2.27;;;5.20;99.90;;;;;;4993326;28;20476;-84
2023/11/16 07:05:47;;;;;;;10.17;2.37;;;5.20;99.90;;;;;;4991801;28;20397;-84
2023/11/16 07:08:13;;;;;;;7.17;2.20;;;5.20;99.90;;;;;;4997377;28;20037;-84
2023/11/16 07:10:38;;;;;;;7.33;1.73;;;5.20;99.90;;;;;;5006875;28;21165;-83
2023/11/16 07:13:05;;;;;;;5.30;1.80;;;5.30;99.90;;;;;;5009486;28;20030;-83
2023/11/16 07:15:32;;;;;;;6.77;2.07;;;5.30;99.90;;;;;;4998725;28;20022;-84
2023/11/16 07:17:58;;;;;;;4.97;1.90;;;5.40;99.90;;;;;;4995562;28;20031;-84
2023/11/16 07:20:25;;;;;;;10.43;2.37;;;5.40;99.90;;;;;;4996989;28;20033;-84
2023/11/16 07:22:50;;;;;;;5.40;1.73;;;5.40;99.90;;;;;;4995598;28;20030;-83
2023/11/16 07:25:20;;;;;;;8.57;2.40;;;5.50;99.90;;;;;;4996644;28;20022;-83
2023/11/16 07:27:46;;;;;;;8.90;1.97;;;5.60;99.90;;;;;;4992173;28;20089;-84
2023/11/16 07:30:12;;;;;;;9.80;2.23;;;5.60;99.90;;;;;;4989488;28;20038;-83
2023/11/16 07:32:37;;;;;;;9.40;2.27;;;5.70;99.90;;;;;;4988243;28;20031;-83
2023/11/16 07:35:14;;;;;;;8.90;2.43;;;5.70;99.90;;;;;;4987148;28;20034;-83
2023/11/16 07:37:44;;;;;;;5.50;2.10;;;5.80;99.90;;;;;;4988574;28;20033;-84
2023/11/16 07:40:11;;;;;;;5.87;2.10;;;5.90;99.90;;;;;;4988994;28;20400;-84
2023/11/16 07:42:39;;;;;;;10.90;3.37;;;5.90;99.90;;;;;;4988972;28;20833;-84
2023/11/16 07:45:09;;;;;;;5.83;2.20;;;5.90;99.90;;;;;;4990306;28;20026;-84
2023/11/16 07:47:38;;;;;;;6.37;2.00;;;6.00;99.90;;;;;;4988653;28;20058;-85
2023/11/16 07:50:10;;;;;;;7.90;2.50;;;6.00;99.90;;;;;;4997663;28;20126;-84
2023/11/16 07:52:43;;;;;;;6.73;2.10;;;6.10;99.90;;;;;;5008297;28;20133;-85
2023/11/16 07:55:21;;;;;;;7.20;1.63;;;6.20;99.90;;;;;;5009074;28;20030;-84
2023/11/16 07:57:48;;;;;;;6.23;1.70;;;6.20;99.90;;;;;;5007859;28;20049;-84
2023/11/16 08:00:31;;;;;;;5.57;1.87;;;6.30;99.90;;;;;;5009648;28;20034;-84
2023/11/16 08:05:43;;;;;;;4.22;1.42;;;6.40;99.90;;;;;;5032337;28;20100;-83
2023/11/16 08:08:12;;;;;;;6.10;1.50;;;6.50;99.90;;;;;;5018846;28;20049;-84
2023/11/16 08:10:42;;;;;;;5.63;1.87;;;6.50;99.90;;;;;;5002333;28;20034;-84
2023/11/16 08:13:10;;;;;;;4.00;1.40;;;6.50;99.90;;;;;;5009919;28;20073;-83
2023/11/16 08:15:40;;;;;;;7.20;1.30;;;6.60;99.90;;;;;;5007495;28;20029;-83
2023/11/16 08:18:06;;;;;;;4.00;1.30;;;6.60;99.90;;;;;;5007957;28;21036;-84
2023/11/16 08:20:32;;;;;;;2.83;1.47;;;6.70;99.90;;;;;;5007600;28;20033;-83
2023/11/16 08:22:58;;;;;;;5.57;1.50;;;6.80;99.90;;;;;;5009755;28;21046;-83
2023/11/16 08:25:28;;;;;;;5.90;1.73;;;6.80;99.90;;;;;;5008856;28;20044;-83
2023/11/16 08:27:54;;;;;;;3.17;1.37;;;6.90;99.90;;;;;;5006681;28;20026;-83
2023/11/16 08:30:22;;;;;;;2.70;1.60;;;6.90;99.90;;;;;;4995512;28;20393;-83
2023/11/16 08:32:48;;;;;;;7.47;2.20;;;6.90;99.90;;;;;;5012150;28;20029;-83
2023/11/16 08:35:14;;;;;;;4.53;1.70;;;6.90;99.90;;;;;;5009289;28;20033;-83
2023/11/16 08:37:44;;;;;;;3.37;1.40;;;6.90;99.90;;;;;;5012405;28;20030;-83
2023/11/16 08:40:12;;;;;;;5.00;1.60;;;6.90;99.90;;;;;;5012710;28;20141;-83
2023/11/16 08:42:43;;;;;;;5.30;1.60;;;6.90;99.90;;;;;;5009267;28;20034;-83
2023/11/16 08:45:20;;;;;;;5.60;1.60;;;6.80;99.90;;;;;;5008921;28;21366;-84
2023/11/16 08:47:52;;;;;;;6.30;1.50;;;6.90;99.90;;;;;;5013283;28;20192;-83
2023/11/16 08:50:19;;;;;;;6.87;1.60;;;6.90;99.90;;;;;;5008686;28;20140;-83
2023/11/16 08:52:48;;;;;;;5.13;1.50;;;6.90;99.90;;;;;;5005713;28;20046;-86
2023/11/16 08:55:21;;;;;;;3.63;1.40;;;6.90;99.90;;;;;;5007839;28;20116;-83
2023/11/16 08:57:47;;;;;;;4.10;1.70;;;7.00;99.90;;;;;;5005733;28;20044;-84
2023/11/16 09:00:37;;;;;;;4.53;1.37;;;7.10;99.90;;;;;;5008086;28;20729;-85
2023/11/16 09:03:09;;;;;;;3.80;1.43;;;7.20;99.90;;;;;;5007095;28;20018;-85
2023/11/16 09:05:37;;;;;;;5.03;1.37;;;7.30;99.90;;;;;;5007607;28;20033;-85
2023/11/16 09:08:03;;;;;;;4.23;2.17;;;7.40;99.90;;;;;;5006621;28;20033;-84
2023/11/16 09:10:31;;;;;;;3.07;1.30;;;7.50;99.90;;;;;;5009068;28;20399;-84
2023/11/16 09:12:57;;;;;;;3.30;1.20;;;7.60;99.90;;;;;;5008820;28;20025;-84
2023/11/16 09:15:23;;;;;;;5.77;1.50;;;7.70;99.90;;;;;;5007347;28;20037;-84
2023/11/16 09:17:50;;;;;;;3.33;1.30;;;7.70;99.90;;;;;;5006172;28;20034;-84
2023/11/16 09:20:18;;;;;;;3.40;1.57;;;7.80;99.90;;;;;;5007599;28;20047;-84
2023/11/16 09:22:45;;;;;;;4.17;1.50;;;7.90;99.90;;;;;;5007788;28;20022;-85
2023/11/16 09:25:15;;;;;;;5.97;1.30;;;8.00;99.90;;;;;;5010489;28;20757;-84
2023/11/16 09:27:45;;;;;;;5.90;1.40;;;8.00;99.90;;;;;;5013608;28;20112;-85
2023/11/16 09:30:14;;;;;;;5.63;1.43;;;8.10;99.90;;;;;;5012077;28;20176;-84
2023/11/16 09:32:43;;;;;;;4.27;1.27;;;8.20;99.90;;;;;;5008621;28;20030;-86
2023/11/16 09:35:09;;;;;;;4.97;1.60;;;8.30;99.90;;;;;;5006293;28;20041;-86
2023/11/16 09:37:36;;;;;;;4.90;1.30;;;8.30;99.90;;;;;;5007671;28;20022;-85
2023/11/16 09:40:05;;;;;;;3.70;1.40;;;8.40;99.90;;;;;;5005888;28;20188;-85
2023/11/16 09:42:33;;;;;;;8.13;1.43;;;8.40;99.90;;;;;;5005600;28;20664;-84
2023/11/16 09:45:02;;;;;;;5.50;1.50;;;8.50;99.90;;;;;;4992306;28;20544;-84
2023/11/16 09:47:31;;;;;;;5.23;1.93;;;8.70;99.90;;;;;;5003084;28;20139;-85
2023/11/16 09:49:57;;;;;;;5.63;1.53;;;8.70;99.90;;;;;;5009792;28;20033;-85
2023/11/16 09:52:25;;;;;;;10.83;1.83;;;8.70;99.90;;;;;;5014853;28;20115;-85
2023/11/16 09:54:56;;;;;;;5.43;1.60;;;8.80;99.90;;;;;;5012060;28;20103;-85
2023/11/16 09:57:22;;;;;;;6.07;1.30;;;8.90;99.90;;;;;;5011308;28;20072;-85
2023/11/16 09:59:52;;;;;;;5.67;1.53;;;9.00;99.90;;;;;;5011918;28;21941;-85
2023/11/16 10:02:23;;;;;;;4.03;1.30;;;9.00;99.90;;;;;;5014250;28;20025;-85
2023/11/16 10:04:49;;;;;;;7.03;1.60;;;9.00;99.90;;;;;;5014688;28;20033;-84
2023/11/16 10:07:20;;;;;;;5.57;1.37;;;9.10;99.90;;;;;;5011590;28;20037;-85
2023/11/16 10:09:46;;;;;;;4.27;1.87;;;9.10;99.90;;;;;;5015384;28;20053;-87
2023/11/16 10:12:12;;;;;;;5.10;1.57;;;9.10;99.90;;;;;;5015021;28;20026;-86
2023/11/16 10:14:51;;;;;;;4.90;1.20;;;9.20;99.90;;;;;;5013202;28;20049;-87
2023/11/16 10:17:21;;;;;;;6.83;1.40;;;9.20;99.90;;;;;;5012587;28;20508;-87
2023/11/16 10:19:47;;;;;;;4.87;1.53;;;9.30;99.90;;;;;;5014776;28;20100;-87
2023/11/16 10:22:13;;;;;;;6.17;1.20;;;9.40;99.90;;;;;;5013130;28;20033;-87
2023/11/16 10:24:40;;;;;;;3.87;1.13;;;9.40;99.90;;;;;;5015677;28;20029;-86
2023/11/16 10:27:06;;;;;;;5.60;1.50;;;9.40;99.90;;;;;;5015726;28;20022;-86
2023/11/16 10:29:31;;;;;;;8.37;1.63;;;9.50;99.90;;;;;;5017703;28;20485;-86
2023/11/16 10:31:59;;;;;;;2.77;1.27;;;9.50;99.90;;;;;;5021219;28;20066;-88
2023/11/16 10:34:26;;;;;;;2.90;1.20;;;9.60;99.90;;;;;;5022721;28;20026;-86
2023/11/16 10:36:55;;;;;;;5.90;1.10;;;9.60;99.90;;;;;;5015706;28;20116;-85
2023/11/16 10:39:27;;;;;;;7.83;1.20;;;9.60;99.90;;;;;;5015114;28;20071;-87
2023/11/16 10:41:54;;;;;;;3.20;1.20;;;9.60;99.90;;;;;;5014843;28;20033;-86
2023/11/16 10:44:23;;;;;;;4.47;1.10;;;9.60;99.90;;;;;;5014963;28;20789;-85
2023/11/16 10:46:49;;;;;;;6.13;1.50;;;9.70;99.90;;;;;;5015062;28;20489;-85
2023/11/16 10:49:16;;;;;;;7.13;1.50;;;9.60;99.90;;;;;;5015712;28;20026;-85
2023/11/16 10:51:46;;;;;;;3.87;1.37;;;9.70;99.90;;;;;;5015443;28;20048;-86
2023/11/16 10:54:19;;;;;;;3.97;1.17;;;9.70;99.90;;;;;;5022623;28;20071;-85
2023/11/16 10:56:47;;;;;;;4.63;1.30;;;9.70;99.90;;;;;;5025014;28;20029;-85
2023/11/16 10:59:14;;;;;;;3.27;1.30;;;9.70;99.90;;;;;;5030062;28;20363;-85
2023/11/16 11:01:39;;;;;;;2.40;1.20;;;9.70;99.90;;;;;;5040190;28;20026;-86
2023/11/16 11:04:06;;;;;;;6.27;1.80;;;9.70;99.90;;;;;;5039670;28;20025;-85
2023/11/16 11:06:32;;;;;;;4.63;1.30;;;9.70;99.90;;;;;;5024074;28;20032;-85
2023/11/16 11:08:58;;;;;;;7.00;1.67;;;9.70;99.90;;;;;;5025863;28;20108;-85
2023/11/16 11:11:27;;;;;;;5.13;1.50;;;9.70;99.90;;;;;;5019626;28;20022;-85
2023/11/16 11:14:05;;;;;;;3.53;1.10;;;9.70;99.90;;;;;;5019551;28;21355;-86
2023/11/16 11:16:31;;;;;;;4.90;1.33;;;9.70;99.90;;;;;;5016130;28;20442;-86
2023/11/16 11:18:57;;;;;;;4.73;1.13;;;9.70;99.90;;;;;;5018009;28;20036;-85
2023/11/16 11:21:24;;;;;;;3.57;1.30;;;9.80;99.90;;;;;;5017909;28;20047;-87
2023/11/16 11:24:05;;;;;;;3.33;1.20;;;9.80;99.90;;;;;;5016005;28;20028;-85
2023/11/16 11:26:56;;;;;;;4.37;1.37;;;9.80;99.90;;;;;;5019917;28;20026;-81
2023/11/16 11:29:23;;;;;;;5.80;1.30;;;9.90;99.90;;;;;;5015521;28;20049;-81
2023/11/16 11:32:14;;;;;;;4.00;1.47;;;9.80;99.90;;;;;;5021367;28;20018;-81
2023/11/16 11:34:40;;;;;;;3.27;1.20;;;9.90;99.90;;;;;;5020236;28;20033;-81
2023/11/16 11:37:10;;;;;;;7.17;1.77;;;9.90;99.90;;;;;;5004128;28;20041;-81
2023/11/16 11:39:45;;;;;;;3.50;1.13;;;9.90;99.90;;;;;;5019361;28;20034;-81
2023/11/16 11:42:14;;;;;;;5.65;1.30;;;9.90;99.90;;;;;;5018719;28;20564;-81
2023/11/16 11:44:53;;;;;;;3.28;1.05;;;9.90;99.90;;;;;;5019063;28;20120;-81
2023/11/16 11:47:24;;;;;;;5.00;1.23;;;9.90;99.90;;;;;;5019260;28;20152;-81
2023/11/16 11:49:51;;;;;;;5.05;1.40;;;9.90;99.90;;;;;;5017085;28;20044;-81
2023/11/16 11:52:17;;;;;;;7.73;2.27;;;9.90;99.90;;;;;;5019310;28;20138;-81
2023/11/16 11:54:45;;;;;;;2.77;1.27;;;9.90;99.90;;;;;;5017353;28;21374;-80
2023/11/16 11:57:11;;;;;;;6.10;1.83;;;9.90;99.90;;;;;;5016415;28;20033;-79
2023/11/16 11:59:36;;;;;;;4.87;1.30;;;9.80;99.90;;;;;;5016849;28;20034;-79
2023/11/16 12:02:09;;;;;;;4.77;1.30;;;9.80;99.90;;;;;;5019160;28;20026;-80
2023/11/16 12:04:36;;;;;;;6.30;2.37;;;9.80;99.90;;;;;;5018970;28;20074;-80
2023/11/16 12:07:09;;;;;;;6.30;1.87;;;9.80;99.90;;;;;;5016517;28;20026;-80
2023/11/16 12:09:40;;;;;;;6.07;1.47;;;9.70;99.90;;;;;;5016686;28;20034;-79
2023/11/16 12:12:07;;;;;;;7.37;2.30;;;9.70;99.90;;;;;;5019487;28;20052;-82
2023/11/16 12:14:45;;;;;;;7.37;2.60;;;9.70;99.90;;;;;;5013599;28;20127;-80
2023/11/16 12:17:12;;;;;;;7.90;3.00;;;9.70;99.90;;;;;;5013646;28;20017;-81
2023/11/16 12:19:39;;;;;;;6.53;2.57;;;9.70;99.90;;;;;;5013294;28;20058;-81
2023/11/16 12:22:07;;;;;;;4.47;1.47;;;9.60;99.90;;;;;;5011320;28;20025;-81
2023/11/16 12:24:33;;;;;;;6.60;1.90;;;9.60;99.90;;;;;;5014388;28;20044;-81
2023/11/16 12:26:59;;;;;;;3.73;2.20;;;9.60;99.90;;;;;;5013185;28;20029;-82
2023/11/16 12:29:26;;;;;;;5.67;1.47;;;9.50;99.90;;;;;;5012534;28;20123;-81
2023/11/16 12:31:54;;;;;;;4.17;1.90;;;9.40;99.90;;;;;;5010854;28;20033;-82
2023/11/16 12:34:21;;;;;;;7.27;2.30;;;9.40;99.90;;;;;;5012035;28;20042;-82
2023/11/16 12:36:48;;;;;;;9.17;1.90;;;9.30;99.90;;;;;;5013140;28;20189;-83
2023/11/16 12:39:14;;;;;;;7.93;1.97;;;9.30;99.90;;;;;;5010993;28;20034;-80
2023/11/16 12:41:40;;;;;;;4.63;1.80;;;9.20;99.90;;;;;;5010071;28;20095;-80
2023/11/16 12:44:06;;;;;;;4.50;1.80;;;9.20;99.90;;;;;;5011507;28;20120;-82
2023/11/16 12:46:32;;;;;;;5.00;2.70;;;9.20;99.90;;;;;;5008416;28;20033;-82
2023/11/16 12:48:57;;;;;;;7.13;1.83;;;9.20;99.90;;;;;;5010174;28;20044;-82
2023/11/16 12:51:25;;;;;;;6.33;2.27;;;9.20;99.90;;;;;;4994863;28;20767;-82
2023/11/16 12:53:50;;;;;;;7.27;3.97;;;9.20;99.90;;;;;;5000109;28;20388;-82
2023/11/16 12:56:17;;;;;;;9.60;4.20;;;9.20;99.90;;;;;;5000917;28;20026;-83
2023/11/16 12:58:43;;;;;;;15.13;8.13;;;9.20;99.90;;;;;;5002887;28;20157;-82
2023/11/16 13:01:12;;;;;;;7.73;3.43;;;9.20;99.90;;;;;;5002747;28;20029;-82
2023/11/16 13:03:38;;;;;;;5.83;2.70;;;9.20;99.90;;;;;;4998888;28;20030;-82